createdAt,value
2022-08-22T00:00:13.292Z,17.90
2022-08-22T00:02:43.674Z,19.10
2022-08-22T00:02:54.799Z,18.70
2022-08-22T00:03:04.653Z,19.10
2022-08-22T00:03:15.129Z,17.70
2022-08-22T00:05:51.143Z,17.60
2022-08-22T00:08:24.743Z,17.50
2022-08-22T00:11:07.941Z,17.50
2022-08-22T00:13:46.363Z,17.40
2022-08-22T00:16:19.014Z,17.30
2022-08-22T00:18:54.550Z,17.40
2022-08-22T00:21:29.558Z,17.40
2022-08-22T00:24:09.297Z,17.30
2022-08-22T00:26:45.650Z,17.30
2022-08-22T00:29:18.554Z,17.20
2022-08-22T00:31:51.923Z,17.30
2022-08-22T00:34:30.925Z,17.30
2022-08-22T00:37:06.076Z,17.30
2022-08-22T00:39:40.977Z,17.10
2022-08-22T00:42:44.347Z,17.20
2022-08-22T00:45:54.845Z,17.10
2022-08-22T00:49:04.078Z,17.10
2022-08-22T00:52:04.400Z,17.10
2022-08-22T00:55:00.204Z,17.00
2022-08-22T00:57:43.710Z,17.10
2022-08-22T01:00:19.515Z,17.20
2022-08-22T01:03:23.948Z,17.20
2022-08-22T01:06:05.939Z,17.10
2022-08-22T01:08:48.157Z,17.30
2022-08-22T01:11:39.360Z,17.20
2022-08-22T01:14:21.141Z,17.30
2022-08-22T01:17:36.662Z,17.50
2022-08-22T01:20:35.651Z,17.40
2022-08-22T01:23:34.462Z,17.50
2022-08-22T01:26:48.690Z,17.40
2022-08-22T01:29:50.954Z,17.70
2022-08-22T01:32:57.750Z,17.60
2022-08-22T01:35:50.153Z,17.70
2022-08-22T01:38:42.443Z,17.70
2022-08-22T01:41:31.273Z,17.70
2022-08-22T01:44:14.353Z,17.70
2022-08-22T01:46:52.130Z,17.40
2022-08-22T01:49:24.198Z,17.20
2022-08-22T01:52:00.329Z,17.10
2022-08-22T01:54:38.360Z,17.40
2022-08-22T01:57:09.382Z,17.50
2022-08-22T01:59:42.790Z,17.40
2022-08-22T02:02:32.768Z,17.50
2022-08-22T02:05:08.894Z,17.50
2022-08-22T02:07:49.202Z,17.50
2022-08-22T02:10:22.180Z,17.60
2022-08-22T02:13:01.314Z,17.40
2022-08-22T02:15:48.051Z,17.80
2022-08-22T02:18:24.029Z,17.80
2022-08-22T02:21:03.995Z,17.70
2022-08-22T02:23:45.547Z,17.90
2022-08-22T02:26:17.718Z,18.00
2022-08-22T02:28:57.933Z,17.90
2022-08-22T02:31:37.427Z,18.00
2022-08-22T02:34:25.188Z,18.00
2022-08-22T02:37:03.998Z,18.00
2022-08-22T02:39:39.027Z,18.20
2022-08-22T02:42:18.671Z,18.00
2022-08-22T02:45:04.413Z,18.10
2022-08-22T02:47:40.211Z,18.20
2022-08-22T02:50:21.923Z,18.10
2022-08-22T02:52:58.730Z,18.20
2022-08-22T02:55:49.221Z,18.20
2022-08-22T02:58:25.346Z,18.20
2022-08-22T03:01:15.971Z,17.90
2022-08-22T03:03:48.164Z,17.90
2022-08-22T03:06:37.747Z,17.70
2022-08-22T03:09:23.092Z,17.60
2022-08-22T03:12:05.734Z,17.60
2022-08-22T03:14:44.403Z,17.80
2022-08-22T03:17:18.065Z,17.70
2022-08-22T03:19:55.741Z,17.70
2022-08-22T03:22:32.255Z,17.70
2022-08-22T03:25:08.432Z,17.70
2022-08-22T03:27:42.670Z,17.90
2022-08-22T03:30:18.263Z,17.70
2022-08-22T03:32:54.472Z,17.80
2022-08-22T03:35:40.477Z,17.70
2022-08-22T03:38:19.736Z,17.80
2022-08-22T03:41:10.731Z,17.70
2022-08-22T03:44:05.928Z,17.90
2022-08-22T03:47:13.234Z,17.80
2022-08-22T03:50:11.783Z,17.90
2022-08-22T03:53:18.648Z,18.00
2022-08-22T03:56:22.865Z,17.90
2022-08-22T03:59:22.231Z,18.20
2022-08-22T04:02:24.665Z,18.30
2022-08-22T04:05:28.035Z,18.00
2022-08-22T04:08:24.260Z,18.40
2022-08-22T04:11:18.649Z,18.50
2022-08-22T04:14:01.089Z,18.70
2022-08-22T04:17:07.408Z,18.80
2022-08-22T04:20:02.040Z,18.00
2022-08-22T04:23:02.859Z,18.10
2022-08-22T04:25:38.835Z,18.20
2022-08-22T04:28:14.915Z,18.40
2022-08-22T04:30:47.691Z,18.60
2022-08-22T04:33:25.199Z,18.70
2022-08-22T04:36:03.340Z,18.60
2022-08-22T04:38:37.774Z,18.60
2022-08-22T04:41:10.504Z,18.00
2022-08-22T04:43:42.421Z,17.70
2022-08-22T04:46:17.152Z,17.40
2022-08-22T04:48:53.869Z,17.40
2022-08-22T04:51:27.484Z,17.40
2022-08-22T04:54:21.048Z,17.60
2022-08-22T04:57:01.228Z,17.60
2022-08-22T04:59:31.495Z,17.90
2022-08-22T05:02:06.683Z,17.80
2022-08-22T05:04:39.622Z,18.00
2022-08-22T05:07:13.994Z,18.20
2022-08-22T05:09:45.746Z,18.60
2022-08-22T05:12:19.402Z,18.70
2022-08-22T05:14:54.408Z,18.20
2022-08-22T05:17:28.028Z,18.10
2022-08-22T05:20:03.161Z,17.80
2022-08-22T05:22:36.673Z,17.80
2022-08-22T05:25:11.003Z,17.80
2022-08-22T05:27:44.265Z,17.90
2022-08-22T05:30:16.935Z,17.80
2022-08-22T05:32:52.808Z,17.70
2022-08-22T05:35:29.208Z,17.70
2022-08-22T05:37:58.060Z,17.60
2022-08-22T05:40:28.126Z,17.60
2022-08-22T05:42:58.602Z,17.50
2022-08-22T05:45:29.228Z,17.60
2022-08-22T05:48:04.231Z,17.70
2022-08-22T05:50:39.429Z,17.80
2022-08-22T05:53:11.303Z,17.70
2022-08-22T05:55:49.915Z,17.80
2022-08-22T05:58:45.809Z,17.90
2022-08-22T06:01:27.627Z,18.10
2022-08-22T06:04:04.379Z,18.20
2022-08-22T06:06:42.019Z,18.60
2022-08-22T06:09:19.192Z,18.80
2022-08-22T06:11:53.943Z,19.20
2022-08-22T06:14:32.696Z,18.90
2022-08-22T06:17:08.740Z,18.90
2022-08-22T06:19:41.429Z,18.80
2022-08-22T06:22:11.840Z,18.50
2022-08-22T06:24:52.963Z,18.50
2022-08-22T06:27:24.337Z,18.60
2022-08-22T06:29:56.407Z,18.80
2022-08-22T06:32:58.563Z,19.00
2022-08-22T06:35:22.894Z,19.00
2022-08-22T06:37:55.882Z,19.30
2022-08-22T06:40:25.078Z,19.40
2022-08-22T06:42:54.665Z,19.50
2022-08-22T06:45:27.462Z,19.60
2022-08-22T06:48:00.888Z,20.60
2022-08-22T06:50:33.755Z,20.60
2022-08-22T06:53:07.980Z,20.90
2022-08-22T06:55:39.202Z,20.70
2022-08-22T06:58:14.448Z,20.50
2022-08-22T07:00:47.536Z,19.80
2022-08-22T07:03:27.593Z,19.80
2022-08-22T07:05:57.107Z,19.90
2022-08-22T07:08:28.231Z,19.90
2022-08-22T07:11:05.556Z,19.80
2022-08-22T07:13:36.385Z,20.00
2022-08-22T07:16:08.843Z,20.30
2022-08-22T07:18:47.711Z,20.10
2022-08-22T07:21:26.444Z,20.70
2022-08-22T07:23:56.765Z,20.70
2022-08-22T07:26:31.893Z,20.70
2022-08-22T07:29:10.697Z,20.80
2022-08-22T07:31:44.856Z,20.90
2022-08-22T07:34:33.194Z,21.10
2022-08-22T07:37:08.414Z,20.80
2022-08-22T07:39:43.310Z,21.00
2022-08-22T07:42:17.273Z,20.90
2022-08-22T07:45:04.031Z,21.50
2022-08-22T07:47:46.026Z,21.70
2022-08-22T07:50:23.606Z,22.10
2022-08-22T07:52:53.380Z,22.20
2022-08-22T07:55:24.698Z,22.10
2022-08-22T07:57:56.401Z,22.20
2022-08-22T08:00:25.735Z,23.00
2022-08-22T08:02:58.277Z,22.80
2022-08-22T08:05:29.616Z,22.50
2022-08-22T08:07:58.669Z,22.70
2022-08-22T08:10:32.633Z,23.30
2022-08-22T08:13:04.389Z,24.10
2022-08-22T08:15:36.275Z,23.90
2022-08-22T08:18:07.596Z,24.00
2022-08-22T08:20:37.389Z,24.70
2022-08-22T08:23:08.217Z,24.40
2022-08-22T08:25:53.323Z,26.50
2022-08-22T08:28:37.698Z,27.30
2022-08-22T08:31:10.808Z,26.20
2022-08-22T08:33:42.062Z,27.90
2022-08-22T08:36:24.316Z,28.20
2022-08-22T08:38:58.712Z,27.10
2022-08-22T08:42:09.006Z,27.30
2022-08-22T08:45:08.144Z,27.80
2022-08-22T08:47:57.592Z,27.30
2022-08-22T08:50:45.360Z,25.60
2022-08-22T08:53:52.898Z,25.50
2022-08-22T08:56:27.232Z,26.40
2022-08-22T08:59:10.059Z,27.80
2022-08-22T09:02:06.698Z,28.70
2022-08-22T09:05:05.514Z,29.70
2022-08-22T09:08:05.576Z,27.30
2022-08-22T09:10:54.388Z,27.30
2022-08-22T09:13:51.916Z,26.80
2022-08-22T09:16:51.281Z,25.10
2022-08-22T09:19:52.047Z,24.60
2022-08-22T09:22:50.191Z,25.30
2022-08-22T09:25:24.582Z,26.10
2022-08-22T09:27:59.683Z,26.20
2022-08-22T09:30:54.220Z,27.00
2022-08-22T09:33:30.705Z,26.80
2022-08-22T09:36:05.376Z,26.90
2022-08-22T09:38:47.955Z,28.00
2022-08-22T09:41:34.135Z,29.40
2022-08-22T09:44:13.353Z,28.70
2022-08-22T09:46:53.712Z,27.60
2022-08-22T09:49:36.037Z,27.70
2022-08-22T09:52:15.266Z,28.00
2022-08-22T09:54:49.677Z,28.20
2022-08-22T09:57:24.768Z,27.80
2022-08-22T10:00:17.251Z,29.40
2022-08-22T10:03:08.585Z,26.70
2022-08-22T10:05:46.448Z,26.40
2022-08-22T10:08:34.691Z,26.90
2022-08-22T10:11:19.642Z,26.70
2022-08-22T10:13:57.676Z,27.30
2022-08-22T10:16:45.198Z,28.20
2022-08-22T10:19:21.217Z,28.90
2022-08-22T10:22:24.515Z,28.40
2022-08-22T10:25:13.879Z,28.60
2022-08-22T10:27:56.907Z,27.50
2022-08-22T10:30:28.710Z,29.40
2022-08-22T10:33:05.729Z,28.40
2022-08-22T10:35:44.522Z,27.60
2022-08-22T10:38:21.789Z,28.20
2022-08-22T10:41:00.704Z,27.40
2022-08-22T10:43:37.200Z,27.50
2022-08-22T10:46:14.065Z,28.80
2022-08-22T10:48:48.868Z,28.70
2022-08-22T10:51:24.627Z,28.80
2022-08-22T10:54:20.761Z,28.40
2022-08-22T10:56:57.721Z,29.10
2022-08-22T10:59:40.811Z,28.40
2022-08-22T11:02:30.433Z,27.90
2022-08-22T11:05:33.005Z,27.90
2022-08-22T11:08:15.071Z,28.10
2022-08-22T11:11:07.069Z,29.40
2022-08-22T11:13:44.399Z,27.90
2022-08-22T11:16:30.884Z,29.20
2022-08-22T11:19:16.783Z,31.50
2022-08-22T11:21:57.499Z,30.30
2022-08-22T11:25:07.388Z,29.30
2022-08-22T11:27:49.180Z,29.40
2022-08-22T11:30:23.998Z,29.70
2022-08-22T11:33:32.487Z,28.80
2022-08-22T11:36:26.156Z,28.50
2022-08-22T11:39:17.043Z,28.20
2022-08-22T11:41:56.232Z,27.90
2022-08-22T11:44:31.189Z,28.10
2022-08-22T11:47:08.352Z,29.30
2022-08-22T11:49:50.365Z,29.60
2022-08-22T11:52:28.314Z,29.30
2022-08-22T11:55:11.978Z,31.20
2022-08-22T11:57:44.285Z,30.50
2022-08-22T12:00:26.479Z,30.60
2022-08-22T12:05:51.865Z,30.50
2022-08-22T12:08:49.448Z,31.30
2022-08-22T12:11:25.254Z,30.00
2022-08-22T12:14:04.013Z,30.50
2022-08-22T12:16:51.777Z,31.20
2022-08-22T12:19:26.107Z,30.20
2022-08-22T12:22:35.147Z,29.90
2022-08-22T12:25:14.882Z,29.80
2022-08-22T12:27:55.523Z,30.60
2022-08-22T12:30:34.378Z,29.40
2022-08-22T12:33:23.104Z,29.10
2022-08-22T12:36:02.190Z,31.50
2022-08-22T12:38:45.344Z,33.00
2022-08-22T12:41:48.636Z,32.80
2022-08-22T12:44:30.917Z,32.10
2022-08-22T12:47:13.850Z,31.00
2022-08-22T12:50:04.867Z,30.60
2022-08-22T12:52:49.661Z,31.40
2022-08-22T12:55:46.978Z,33.30
2022-08-22T12:58:29.442Z,34.40
2022-08-22T13:01:03.486Z,34.70
2022-08-22T13:03:34.100Z,32.70
2022-08-22T13:06:07.705Z,32.10
2022-08-22T13:08:45.715Z,33.60
2022-08-22T13:11:22.354Z,32.20
2022-08-22T13:13:56.705Z,30.50
2022-08-22T13:16:34.794Z,29.60
2022-08-22T13:19:13.474Z,29.60
2022-08-22T13:21:48.255Z,29.70
2022-08-22T13:24:22.567Z,29.20
2022-08-22T13:27:15.474Z,29.40
2022-08-22T13:29:50.151Z,29.50
2022-08-22T13:32:26.403Z,29.80
2022-08-22T13:34:58.612Z,30.80
2022-08-22T13:37:45.114Z,29.90
2022-08-22T13:40:26.581Z,30.50
2022-08-22T13:43:03.576Z,32.00
2022-08-22T13:45:34.169Z,32.80
2022-08-22T13:48:09.085Z,31.00
2022-08-22T13:50:57.505Z,29.90
2022-08-22T13:53:33.566Z,29.70
2022-08-22T13:56:15.904Z,29.50
2022-08-22T13:58:48.599Z,29.80
2022-08-22T14:01:28.685Z,30.00
2022-08-22T14:04:01.691Z,28.70
2022-08-22T14:06:41.500Z,29.30
2022-08-22T14:09:31.305Z,29.10
2022-08-22T14:12:12.612Z,27.90
2022-08-22T14:14:46.132Z,28.20
2022-08-22T14:17:19.879Z,28.00
2022-08-22T14:19:59.324Z,27.60
2022-08-22T14:22:34.836Z,27.80
2022-08-22T14:25:07.633Z,28.10
2022-08-22T14:27:39.785Z,28.50
2022-08-22T14:30:18.696Z,29.00
2022-08-22T14:32:51.348Z,29.20
2022-08-22T14:35:34.570Z,29.50
2022-08-22T14:38:30.343Z,30.60
2022-08-22T14:41:03.933Z,29.90
2022-08-22T14:43:50.683Z,30.20
2022-08-22T14:46:26.738Z,30.70
2022-08-22T14:49:16.195Z,31.30
2022-08-22T14:51:50.869Z,30.60
2022-08-22T14:54:21.922Z,30.50
2022-08-22T14:56:52.800Z,30.30
2022-08-22T14:59:39.948Z,29.50
2022-08-22T15:02:13.991Z,28.90
2022-08-22T15:04:45.469Z,28.90
2022-08-22T15:07:25.161Z,28.60
2022-08-22T15:09:56.913Z,28.70
2022-08-22T15:12:29.141Z,29.20
2022-08-22T15:15:00.222Z,28.90
2022-08-22T15:17:40.754Z,29.00
2022-08-22T15:20:28.102Z,29.00
2022-08-22T15:22:59.989Z,28.90
2022-08-22T15:25:32.147Z,29.50
2022-08-22T15:28:05.760Z,29.50
2022-08-22T15:30:44.368Z,29.20
2022-08-22T15:33:19.061Z,29.00
2022-08-22T15:35:48.385Z,28.50
2022-08-22T15:38:31.054Z,28.50
2022-08-22T15:41:31.105Z,28.50
2022-08-22T15:44:07.246Z,29.00
2022-08-22T15:46:40.194Z,28.90
2022-08-22T15:49:13.190Z,28.80
2022-08-22T15:51:47.360Z,28.60
2022-08-22T15:54:24.624Z,28.70
2022-08-22T15:57:13.899Z,28.70
2022-08-22T15:59:54.728Z,28.50
2022-08-22T16:02:30.462Z,28.20
2022-08-22T16:05:26.017Z,28.30
2022-08-22T16:08:04.668Z,28.20
2022-08-22T16:10:38.144Z,28.40
2022-08-22T16:13:17.097Z,28.30
2022-08-22T16:16:11.469Z,28.30
2022-08-22T16:19:09.664Z,27.60
2022-08-22T16:22:16.361Z,27.20
2022-08-22T16:25:17.938Z,26.90
2022-08-22T16:27:58.563Z,27.10
2022-08-22T16:30:36.591Z,27.20
2022-08-22T16:33:06.996Z,27.50
2022-08-22T16:36:37.397Z,27.60
2022-08-22T16:39:12.156Z,27.80
2022-08-22T16:41:43.065Z,28.00
2022-08-22T16:44:24.058Z,27.80
2022-08-22T16:46:54.012Z,27.80
2022-08-22T16:49:28.570Z,27.70
2022-08-22T16:52:33.805Z,27.70
2022-08-22T16:55:06.440Z,27.20
2022-08-22T16:58:05.110Z,27.20
2022-08-22T17:00:45.356Z,27.30
2022-08-22T17:03:26.385Z,27.40
2022-08-22T17:06:04.280Z,27.20
2022-08-22T17:08:46.282Z,27.00
2022-08-22T17:11:27.590Z,26.70
2022-08-22T17:14:12.094Z,26.60
2022-08-22T17:16:54.822Z,26.50
2022-08-22T17:19:39.540Z,26.70
2022-08-22T17:22:13.680Z,27.00
2022-08-22T17:24:47.083Z,26.90
2022-08-22T17:27:24.384Z,26.80
2022-08-22T17:30:06.997Z,26.60
2022-08-22T17:32:44.834Z,26.70
2022-08-22T17:35:25.935Z,26.90
2022-08-22T17:38:06.150Z,26.90
2022-08-22T17:40:42.984Z,27.00
2022-08-22T17:43:32.749Z,27.10
2022-08-22T17:46:22.963Z,27.10
2022-08-22T17:48:56.492Z,27.50
2022-08-22T17:51:29.687Z,27.60
2022-08-22T17:54:02.338Z,27.60
2022-08-22T17:56:40.440Z,27.60
2022-08-22T17:59:21.087Z,27.30
2022-08-22T18:01:51.998Z,27.20
2022-08-22T18:04:28.274Z,26.90
2022-08-22T18:07:05.207Z,26.70
2022-08-22T18:09:39.029Z,26.30
2022-08-22T18:12:16.669Z,26.10
2022-08-22T18:14:54.628Z,25.90
2022-08-22T18:17:30.317Z,25.90
2022-08-22T18:20:05.159Z,25.80
2022-08-22T18:22:36.881Z,25.70
2022-08-22T18:25:09.759Z,25.60
2022-08-22T18:27:47.296Z,25.60
2022-08-22T18:30:21.899Z,25.50
2022-08-22T18:32:56.925Z,25.30
2022-08-22T18:35:29.908Z,25.20
2022-08-22T18:38:19.281Z,25.10
2022-08-22T18:40:53.371Z,24.90
2022-08-22T18:43:26.907Z,24.80
2022-08-22T18:46:04.223Z,24.50
2022-08-22T18:48:54.447Z,24.30
2022-08-22T18:51:30.428Z,24.10
2022-08-22T18:54:18.357Z,23.90
2022-08-22T18:56:51.472Z,23.70
2022-08-22T18:59:38.437Z,23.50
2022-08-22T19:02:22.955Z,23.30
2022-08-22T19:05:22.486Z,23.00
2022-08-22T19:08:07.108Z,22.90
2022-08-22T19:10:46.175Z,22.60
2022-08-22T19:13:42.885Z,22.50
2022-08-22T19:16:42.945Z,22.30
2022-08-22T19:19:17.262Z,22.20
2022-08-22T19:22:21.780Z,21.90
2022-08-22T19:25:12.669Z,21.70
2022-08-22T19:27:44.554Z,21.50
2022-08-22T19:30:41.394Z,21.50
2022-08-22T19:33:11.360Z,21.30
2022-08-22T19:36:10.014Z,21.20
2022-08-22T19:38:56.937Z,21.00
2022-08-22T19:41:47.364Z,21.10
2022-08-22T19:44:34.581Z,21.20
2022-08-22T19:47:11.137Z,21.20
2022-08-22T19:49:43.910Z,21.40
2022-08-22T19:52:27.085Z,21.70
2022-08-22T19:55:04.570Z,21.80
2022-08-22T19:57:42.951Z,21.80
2022-08-22T20:00:14.169Z,21.90
2022-08-22T20:02:59.551Z,21.80
2022-08-22T20:05:57.117Z,21.90
2022-08-22T20:08:45.109Z,21.80
2022-08-22T20:11:28.223Z,21.80
2022-08-22T20:14:22.528Z,21.70
2022-08-22T20:17:09.476Z,21.60
2022-08-22T20:20:16.387Z,21.60
2022-08-22T20:22:42.484Z,21.50
2022-08-22T20:25:41.772Z,21.40
2022-08-22T20:28:09.598Z,21.30
2022-08-22T20:30:41.050Z,21.10
2022-08-22T20:33:12.697Z,21.10
2022-08-22T20:35:44.456Z,21.00
2022-08-22T20:38:18.583Z,21.00
2022-08-22T20:40:56.359Z,20.90
2022-08-22T20:43:33.135Z,20.90
2022-08-22T20:46:13.179Z,20.90
2022-08-22T20:48:45.027Z,20.70
2022-08-22T20:51:16.577Z,20.60
2022-08-22T20:53:52.650Z,20.60
2022-08-22T20:56:53.261Z,20.50
2022-08-22T20:59:31.532Z,20.40
2022-08-22T21:02:11.854Z,20.30
2022-08-22T21:04:48.043Z,20.20
2022-08-22T21:07:23.170Z,20.20
2022-08-22T21:10:22.061Z,20.10
2022-08-22T21:13:08.639Z,20.10
2022-08-22T21:15:39.259Z,20.00
2022-08-22T21:18:07.602Z,20.00
2022-08-22T21:20:37.701Z,20.00
2022-08-22T21:23:09.863Z,19.90
2022-08-22T21:25:54.894Z,19.80
2022-08-22T21:28:37.213Z,19.70
2022-08-22T21:31:13.035Z,19.70
2022-08-22T21:33:44.090Z,19.50
2022-08-22T21:36:16.674Z,19.40
2022-08-22T21:38:51.011Z,19.40
2022-08-22T21:41:26.807Z,19.30
2022-08-22T21:43:56.385Z,19.30
2022-08-22T21:46:29.675Z,19.10
2022-08-22T21:49:03.399Z,19.00
2022-08-22T21:51:43.835Z,19.00
2022-08-22T21:54:29.796Z,18.90
2022-08-22T21:56:59.655Z,18.90
2022-08-22T21:59:51.594Z,18.80
2022-08-22T22:02:35.281Z,18.70
2022-08-22T22:05:08.982Z,18.30
2022-08-22T22:07:39.350Z,18.20
2022-08-22T22:10:10.379Z,18.20
2022-08-22T22:12:40.839Z,18.20
2022-08-22T22:15:12.513Z,18.30
2022-08-22T22:17:40.695Z,18.20
2022-08-22T22:20:09.414Z,18.20
2022-08-22T22:22:45.945Z,18.20
2022-08-22T22:25:40.263Z,18.20
2022-08-22T22:28:06.441Z,18.20
2022-08-22T22:30:36.197Z,18.20
2022-08-22T22:33:04.364Z,18.10
2022-08-22T22:35:33.365Z,18.00
2022-08-22T22:38:02.142Z,18.00
2022-08-22T22:40:30.512Z,18.00
2022-08-22T22:42:58.717Z,17.90
2022-08-22T22:45:26.750Z,17.90
2022-08-22T22:47:56.730Z,17.80
2022-08-22T22:50:25.326Z,17.80
2022-08-22T22:52:54.048Z,17.70
2022-08-22T22:55:24.670Z,17.70
2022-08-22T22:57:59.154Z,17.60
2022-08-22T23:00:31.237Z,17.50
2022-08-22T23:03:02.077Z,17.50
2022-08-22T23:05:30.560Z,17.20
2022-08-22T23:07:59.975Z,17.10
2022-08-22T23:10:29.653Z,17.20
2022-08-22T23:12:58.651Z,17.30
2022-08-22T23:15:27.292Z,17.50
2022-08-22T23:17:55.635Z,17.30
2022-08-22T23:20:25.628Z,17.10
2022-08-22T23:22:53.759Z,17.00
2022-08-22T23:25:21.877Z,17.10
2022-08-22T23:27:52.410Z,17.10
2022-08-22T23:30:21.563Z,17.10
2022-08-22T23:32:49.770Z,17.10
2022-08-22T23:35:18.076Z,17.10
2022-08-22T23:37:47.558Z,17.00
2022-08-22T23:40:15.703Z,17.00
2022-08-22T23:42:43.877Z,17.10
2022-08-22T23:45:12.150Z,17.10
2022-08-22T23:47:40.365Z,16.90
2022-08-22T23:50:08.788Z,16.90
2022-08-22T23:52:36.898Z,16.90
2022-08-22T23:55:08.101Z,16.90
2022-08-22T23:57:36.532Z,17.00
